sensor_id;sensor_type;location;lat;lon;timestamp;P1;durP1;ratioP1;P2;durP2;ratioP2
10009;SDS011;5044;48.652;9.250;2022-09-16T00:01:11;4.05;;;2.47;;
10009;SDS011;5044;48.652;9.250;2022-09-16T00:03:39;3.03;;;1.63;;
10009;SDS011;5044;48.652;9.250;2022-09-16T00:06:06;3.13;;;2.08;;
10009;SDS011;5044;48.652;9.250;2022-09-16T00:08:43;2.92;;;1.92;;
10009;SDS011;5044;48.652;9.250;2022-09-16T00:11:10;5.53;;;2.75;;
10009;SDS011;5044;48.652;9.250;2022-09-16T00:13:37;2.80;;;1.98;;
10009;SDS011;5044;48.652;9.250;2022-09-16T00:16:06;2.83;;;1.70;;
10009;SDS011;5044;48.652;9.250;2022-09-16T00:18:36;2.65;;;1.90;;
10009;SDS011;5044;48.652;9.250;2022-09-16T00:21:05;2.55;;;2.10;;
10009;SDS011;5044;48.652;9.250;2022-09-16T00:23:33;2.85;;;2.20;;
10009;SDS011;5044;48.652;9.250;2022-09-16T00:26:01;4.25;;;2.22;;
10009;SDS011;5044;48.652;9.250;2022-09-16T00:28:28;4.65;;;2.30;;
10009;SDS011;5044;48.652;9.250;2022-09-16T00:30:57;5.25;;;2.30;;
10009;SDS011;5044;48.652;9.250;2022-09-16T00:33:24;2.67;;;2.22;;
10009;SDS011;5044;48.652;9.250;2022-09-16T00:35:53;5.55;;;2.50;;
10009;SDS011;5044;48.652;9.250;2022-09-16T00:38:30;4.00;;;2.20;;
10009;SDS011;5044;48.652;9.250;2022-09-16T00:40:57;2.35;;;1.65;;
10009;SDS011;5044;48.652;9.250;2022-09-16T00:43:24;3.33;;;2.33;;
10009;SDS011;5044;48.652;9.250;2022-09-16T00:45:53;3.20;;;2.00;;
10009;SDS011;5044;48.652;9.250;2022-09-16T00:50:53;3.67;;;2.17;;
10009;SDS011;5044;48.652;9.250;2022-09-16T00:53:25;3.10;;;2.13;;
10009;SDS011;5044;48.652;9.250;2022-09-16T00:55:55;4.22;;;2.60;;
10009;SDS011;5044;48.652;9.250;2022-09-16T00:58:27;2.63;;;2.22;;
10009;SDS011;5044;48.652;9.250;2022-09-16T01:01:02;5.30;;;2.53;;
10009;SDS011;5044;48.652;9.250;2022-09-16T01:03:31;2.80;;;2.28;;
10009;SDS011;5044;48.652;9.250;2022-09-16T01:06:02;4.75;;;1.80;;
10009;SDS011;5044;48.652;9.250;2022-09-16T01:08:30;4.38;;;2.40;;
10009;SDS011;5044;48.652;9.250;2022-09-16T01:10:57;3.20;;;2.03;;
10009;SDS011;5044;48.652;9.250;2022-09-16T01:13:24;4.65;;;2.05;;
10009;SDS011;5044;48.652;9.250;2022-09-16T01:15:54;2.95;;;2.10;;
10009;SDS011;5044;48.652;9.250;2022-09-16T01:18:25;4.38;;;1.92;;
10009;SDS011;5044;48.652;9.250;2022-09-16T01:21:08;4.38;;;2.95;;
10009;SDS011;5044;48.652;9.250;2022-09-16T01:24:06;2.85;;;2.30;;
10009;SDS011;5044;48.652;9.250;2022-09-16T01:27:17;3.85;;;1.90;;
10009;SDS011;5044;48.652;9.250;2022-09-16T01:30:06;3.13;;;1.95;;
10009;SDS011;5044;48.652;9.250;2022-09-16T01:33:00;3.95;;;2.72;;
10009;SDS011;5044;48.652;9.250;2022-09-16T01:35:39;4.88;;;2.50;;
10009;SDS011;5044;48.652;9.250;2022-09-16T01:38:31;2.30;;;1.67;;
10009;SDS011;5044;48.652;9.250;2022-09-16T01:41:11;3.92;;;3.00;;
10009;SDS011;5044;48.652;9.250;2022-09-16T01:43:48;6.47;;;3.05;;
10009;SDS011;5044;48.652;9.250;2022-09-16T01:46:26;5.28;;;2.75;;
10009;SDS011;5044;48.652;9.250;2022-09-16T01:49:00;6.70;;;3.78;;
10009;SDS011;5044;48.652;9.250;2022-09-16T01:51:33;6.20;;;2.67;;
10009;SDS011;5044;48.652;9.250;2022-09-16T01:54:07;4.00;;;2.42;;
10009;SDS011;5044;48.652;9.250;2022-09-16T01:56:39;3.35;;;2.53;;
10009;SDS011;5044;48.652;9.250;2022-09-16T02:01:41;3.10;;;2.42;;
10009;SDS011;5044;48.652;9.250;2022-09-16T02:04:13;5.60;;;3.00;;
10009;SDS011;5044;48.652;9.250;2022-09-16T02:06:44;2.53;;;2.05;;
10009;SDS011;5044;48.652;9.250;2022-09-16T02:09:15;3.35;;;2.38;;
10009;SDS011;5044;48.652;9.250;2022-09-16T02:11:48;2.90;;;2.35;;
10009;SDS011;5044;48.652;9.250;2022-09-16T02:14:17;4.65;;;2.50;;
10009;SDS011;5044;48.652;9.250;2022-09-16T02:16:48;3.90;;;2.90;;
10009;SDS011;5044;48.652;9.250;2022-09-16T02:19:19;9.23;;;2.83;;
10009;SDS011;5044;48.652;9.250;2022-09-16T02:21:49;3.27;;;2.60;;
10009;SDS011;5044;48.652;9.250;2022-09-16T02:24:19;3.40;;;2.92;;
10009;SDS011;5044;48.652;9.250;2022-09-16T02:26:47;6.53;;;2.58;;
10009;SDS011;5044;48.652;9.250;2022-09-16T02:29:19;2.45;;;2.10;;
10009;SDS011;5044;48.652;9.250;2022-09-16T02:31:50;4.35;;;2.65;;
10009;SDS011;5044;48.652;9.250;2022-09-16T02:34:22;3.10;;;2.17;;
10009;SDS011;5044;48.652;9.250;2022-09-16T02:36:55;3.28;;;2.15;;
10009;SDS011;5044;48.652;9.250;2022-09-16T02:39:27;2.65;;;2.30;;
10009;SDS011;5044;48.652;9.250;2022-09-16T02:41:58;2.95;;;2.45;;
10009;SDS011;5044;48.652;9.250;2022-09-16T02:44:26;4.13;;;2.35;;
10009;SDS011;5044;48.652;9.250;2022-09-16T02:46:56;3.92;;;3.03;;
10009;SDS011;5044;48.652;9.250;2022-09-16T02:49:27;3.42;;;2.42;;
10009;SDS011;5044;48.652;9.250;2022-09-16T02:52:03;4.18;;;2.83;;
10009;SDS011;5044;48.652;9.250;2022-09-16T02:54:37;5.13;;;3.17;;
10009;SDS011;5044;48.652;9.250;2022-09-16T02:57:09;5.60;;;3.45;;
10009;SDS011;5044;48.652;9.250;2022-09-16T02:59:36;8.38;;;4.00;;
10009;SDS011;5044;48.652;9.250;2022-09-16T03:02:05;4.63;;;3.30;;
10009;SDS011;5044;48.652;9.250;2022-09-16T03:04:33;4.82;;;3.00;;
10009;SDS011;5044;48.652;9.250;2022-09-16T03:07:01;7.38;;;3.10;;
10009;SDS011;5044;48.652;9.250;2022-09-16T03:09:30;4.18;;;2.45;;
10009;SDS011;5044;48.652;9.250;2022-09-16T03:12:03;5.03;;;3.22;;
10009;SDS011;5044;48.652;9.250;2022-09-16T03:17:42;8.25;;;3.67;;
10009;SDS011;5044;48.652;9.250;2022-09-16T03:20:21;6.97;;;3.33;;
10009;SDS011;5044;48.652;9.250;2022-09-16T03:22:56;4.97;;;3.45;;
10009;SDS011;5044;48.652;9.250;2022-09-16T03:25:36;3.45;;;2.47;;
10009;SDS011;5044;48.652;9.250;2022-09-16T03:28:11;2.83;;;2.40;;
10009;SDS011;5044;48.652;9.250;2022-09-16T03:30:44;3.78;;;2.60;;
10009;SDS011;5044;48.652;9.250;2022-09-16T03:33:21;2.88;;;1.85;;
10009;SDS011;5044;48.652;9.250;2022-09-16T03:35:53;5.03;;;2.80;;
10009;SDS011;5044;48.652;9.250;2022-09-16T03:38:25;2.40;;;2.15;;
10009;SDS011;5044;48.652;9.250;2022-09-16T03:40:53;2.88;;;1.90;;
10009;SDS011;5044;48.652;9.250;2022-09-16T03:43:20;2.97;;;1.70;;
10009;SDS011;5044;48.652;9.250;2022-09-16T03:45:47;1.80;;;1.70;;
10009;SDS011;5044;48.652;9.250;2022-09-16T03:48:16;3.53;;;2.83;;
10009;SDS011;5044;48.652;9.250;2022-09-16T03:50:44;3.22;;;2.15;;
10009;SDS011;5044;48.652;9.250;2022-09-16T03:53:11;2.55;;;2.30;;
10009;SDS011;5044;48.652;9.250;2022-09-16T03:55:39;3.00;;;2.50;;
10009;SDS011;5044;48.652;9.250;2022-09-16T03:58:06;3.25;;;2.33;;
10009;SDS011;5044;48.652;9.250;2022-09-16T04:00:32;4.80;;;2.50;;
10009;SDS011;5044;48.652;9.250;2022-09-16T04:03:01;5.18;;;2.67;;
10009;SDS011;5044;48.652;9.250;2022-09-16T04:05:27;2.80;;;2.10;;
10009;SDS011;5044;48.652;9.250;2022-09-16T04:07:56;4.00;;;2.70;;
10009;SDS011;5044;48.652;9.250;2022-09-16T04:10:23;3.65;;;2.90;;
10009;SDS011;5044;48.652;9.250;2022-09-16T04:12:50;3.20;;;1.80;;
10009;SDS011;5044;48.652;9.250;2022-09-16T04:15:22;4.72;;;2.08;;
10009;SDS011;5044;48.652;9.250;2022-09-16T04:17:48;4.47;;;2.45;;
10009;SDS011;5044;48.652;9.250;2022-09-16T04:20:15;3.05;;;2.60;;
10009;SDS011;5044;48.652;9.250;2022-09-16T04:22:42;3.60;;;2.63;;
10009;SDS011;5044;48.652;9.250;2022-09-16T04:25:11;4.55;;;2.60;;
10009;SDS011;5044;48.652;9.250;2022-09-16T04:27:37;4.28;;;2.75;;
10009;SDS011;5044;48.652;9.250;2022-09-16T04:30:05;5.28;;;3.00;;
10009;SDS011;5044;48.652;9.250;2022-09-16T04:32:33;6.13;;;2.45;;
10009;SDS011;5044;48.652;9.250;2022-09-16T04:34:59;5.72;;;2.45;;
10009;SDS011;5044;48.652;9.250;2022-09-16T04:37:28;3.30;;;2.10;;
10009;SDS011;5044;48.652;9.250;2022-09-16T04:39:56;4.38;;;3.45;;
10009;SDS011;5044;48.652;9.250;2022-09-16T04:42:24;3.13;;;2.42;;
10009;SDS011;5044;48.652;9.250;2022-09-16T04:44:51;1.63;;;1.52;;
10009;SDS011;5044;48.652;9.250;2022-09-16T04:47:18;2.72;;;2.45;;
10009;SDS011;5044;48.652;9.250;2022-09-16T04:49:46;7.40;;;2.83;;
10009;SDS011;5044;48.652;9.250;2022-09-16T04:52:15;4.90;;;2.60;;
10009;SDS011;5044;48.652;9.250;2022-09-16T04:54:42;3.47;;;2.70;;
10009;SDS011;5044;48.652;9.250;2022-09-16T04:57:08;3.35;;;2.60;;
10009;SDS011;5044;48.652;9.250;2022-09-16T04:59:37;3.53;;;2.63;;
10009;SDS011;5044;48.652;9.250;2022-09-16T05:02:05;3.50;;;2.47;;
10009;SDS011;5044;48.652;9.250;2022-09-16T05:04:31;5.57;;;2.78;;
10009;SDS011;5044;48.652;9.250;2022-09-16T05:06:58;4.32;;;2.70;;
10009;SDS011;5044;48.652;9.250;2022-09-16T05:09:25;3.03;;;2.55;;
10009;SDS011;5044;48.652;9.250;2022-09-16T05:11:52;3.92;;;3.53;;
10009;SDS011;5044;48.652;9.250;2022-09-16T05:14:19;6.07;;;2.60;;
10009;SDS011;5044;48.652;9.250;2022-09-16T05:16:48;7.50;;;3.70;;
10009;SDS011;5044;48.652;9.250;2022-09-16T05:19:15;4.68;;;3.13;;
10009;SDS011;5044;48.652;9.250;2022-09-16T05:21:42;4.32;;;2.85;;
10009;SDS011;5044;48.652;9.250;2022-09-16T05:24:10;3.72;;;2.80;;
10009;SDS011;5044;48.652;9.250;2022-09-16T05:26:39;6.82;;;3.38;;
10009;SDS011;5044;48.652;9.250;2022-09-16T05:29:08;5.95;;;3.45;;
10009;SDS011;5044;48.652;9.250;2022-09-16T05:31:38;5.25;;;2.85;;
10009;SDS011;5044;48.652;9.250;2022-09-16T05:34:10;6.55;;;2.83;;
10009;SDS011;5044;48.652;9.250;2022-09-16T05:36:38;5.13;;;2.38;;
10009;SDS011;5044;48.652;9.250;2022-09-16T05:39:07;6.32;;;3.10;;
10009;SDS011;5044;48.652;9.250;2022-09-16T05:41:35;4.05;;;2.33;;
10009;SDS011;5044;48.652;9.250;2022-09-16T05:44:03;4.18;;;2.70;;
10009;SDS011;5044;48.652;9.250;2022-09-16T05:46:31;8.80;;;2.83;;
10009;SDS011;5044;48.652;9.250;2022-09-16T05:48:59;6.00;;;2.30;;
10009;SDS011;5044;48.652;9.250;2022-09-16T05:51:28;3.28;;;2.00;;
10009;SDS011;5044;48.652;9.250;2022-09-16T05:53:55;4.65;;;2.83;;
10009;SDS011;5044;48.652;9.250;2022-09-16T05:56:24;4.53;;;2.17;;
10009;SDS011;5044;48.652;9.250;2022-09-16T05:58:52;4.85;;;2.70;;
10009;SDS011;5044;48.652;9.250;2022-09-16T06:01:24;7.57;;;2.72;;
10009;SDS011;5044;48.652;9.250;2022-09-16T06:03:52;3.53;;;2.17;;
10009;SDS011;5044;48.652;9.250;2022-09-16T06:06:21;9.73;;;4.25;;
10009;SDS011;5044;48.652;9.250;2022-09-16T06:08:52;5.25;;;3.15;;
10009;SDS011;5044;48.652;9.250;2022-09-16T06:11:20;4.40;;;2.97;;
10009;SDS011;5044;48.652;9.250;2022-09-16T06:13:52;4.65;;;2.50;;
10009;SDS011;5044;48.652;9.250;2022-09-16T06:16:20;5.38;;;2.05;;
10009;SDS011;5044;48.652;9.250;2022-09-16T06:18:49;6.47;;;2.30;;
10009;SDS011;5044;48.652;9.250;2022-09-16T06:21:16;10.55;;;2.50;;
10009;SDS011;5044;48.652;9.250;2022-09-16T06:23:43;3.13;;;2.10;;
10009;SDS011;5044;48.652;9.250;2022-09-16T06:26:13;3.33;;;2.50;;
10009;SDS011;5044;48.652;9.250;2022-09-16T06:28:41;5.05;;;2.45;;
10009;SDS011;5044;48.652;9.250;2022-09-16T06:31:09;9.75;;;2.53;;
10009;SDS011;5044;48.652;9.250;2022-09-16T06:33:39;5.40;;;2.92;;
10009;SDS011;5044;48.652;9.250;2022-09-16T06:36:10;4.57;;;2.20;;
10009;SDS011;5044;48.652;9.250;2022-09-16T06:38:39;5.45;;;1.95;;
10009;SDS011;5044;48.652;9.250;2022-09-16T06:41:06;5.13;;;2.92;;
10009;SDS011;5044;48.652;9.250;2022-09-16T06:43:36;7.82;;;2.20;;
10009;SDS011;5044;48.652;9.250;2022-09-16T06:46:04;3.35;;;2.10;;
10009;SDS011;5044;48.652;9.250;2022-09-16T06:48:34;6.10;;;2.03;;
10009;SDS011;5044;48.652;9.250;2022-09-16T06:51:02;5.55;;;2.15;;
10009;SDS011;5044;48.652;9.250;2022-09-16T06:53:30;7.60;;;2.58;;
10009;SDS011;5044;48.652;9.250;2022-09-16T06:55:58;5.78;;;2.03;;
10009;SDS011;5044;48.652;9.250;2022-09-16T06:58:26;3.85;;;2.28;;
10009;SDS011;5044;48.652;9.250;2022-09-16T07:00:55;3.78;;;2.00;;
10009;SDS011;5044;48.652;9.250;2022-09-16T07:03:22;3.35;;;2.20;;
10009;SDS011;5044;48.652;9.250;2022-09-16T07:05:55;3.13;;;1.75;;
10009;SDS011;5044;48.652;9.250;2022-09-16T07:08:24;5.00;;;2.40;;
10009;SDS011;5044;48.652;9.250;2022-09-16T07:10:56;3.70;;;2.45;;
10009;SDS011;5044;48.652;9.250;2022-09-16T07:13:23;6.23;;;2.63;;
10009;SDS011;5044;48.652;9.250;2022-09-16T07:15:51;7.05;;;2.28;;
10009;SDS011;5044;48.652;9.250;2022-09-16T07:18:20;8.20;;;2.42;;
10009;SDS011;5044;48.652;9.250;2022-09-16T07:20:46;4.35;;;2.45;;
10009;SDS011;5044;48.652;9.250;2022-09-16T07:23:13;4.25;;;2.72;;
10009;SDS011;5044;48.652;9.250;2022-09-16T07:25:40;4.43;;;2.45;;
10009;SDS011;5044;48.652;9.250;2022-09-16T07:28:07;4.80;;;2.58;;
10009;SDS011;5044;48.652;9.250;2022-09-16T07:30:34;5.55;;;3.13;;
10009;SDS011;5044;48.652;9.250;2022-09-16T07:33:01;7.60;;;2.85;;
10009;SDS011;5044;48.652;9.250;2022-09-16T07:35:29;5.93;;;1.98;;
10009;SDS011;5044;48.652;9.250;2022-09-16T07:37:56;2.63;;;1.95;;
10009;SDS011;5044;48.652;9.250;2022-09-16T07:40:26;3.63;;;2.33;;
10009;SDS011;5044;48.652;9.250;2022-09-16T07:42:52;9.93;;;2.58;;
10009;SDS011;5044;48.652;9.250;2022-09-16T07:45:19;6.93;;;2.42;;
10009;SDS011;5044;48.652;9.250;2022-09-16T07:47:47;5.13;;;2.33;;
10009;SDS011;5044;48.652;9.250;2022-09-16T07:50:14;6.30;;;2.05;;
10009;SDS011;5044;48.652;9.250;2022-09-16T07:52:45;4.10;;;2.63;;
10009;SDS011;5044;48.652;9.250;2022-09-16T07:55:12;2.85;;;1.55;;
10009;SDS011;5044;48.652;9.250;2022-09-16T07:57:41;4.60;;;1.60;;
10009;SDS011;5044;48.652;9.250;2022-09-16T08:00:08;3.70;;;1.67;;
10009;SDS011;5044;48.652;9.250;2022-09-16T08:02:37;4.55;;;1.90;;
10009;SDS011;5044;48.652;9.250;2022-09-16T08:05:04;6.55;;;2.05;;
10009;SDS011;5044;48.652;9.250;2022-09-16T08:07:33;2.55;;;2.22;;
10009;SDS011;5044;48.652;9.250;2022-09-16T08:10:02;3.72;;;1.90;;
10009;SDS011;5044;48.652;9.250;2022-09-16T08:12:30;6.38;;;2.47;;
10009;SDS011;5044;48.652;9.250;2022-09-16T08:14:58;5.63;;;2.00;;
10009;SDS011;5044;48.652;9.250;2022-09-16T08:17:25;3.78;;;2.17;;
10009;SDS011;5044;48.652;9.250;2022-09-16T08:19:52;5.75;;;2.42;;
10009;SDS011;5044;48.652;9.250;2022-09-16T08:22:19;3.63;;;2.22;;
10009;SDS011;5044;48.652;9.250;2022-09-16T08:24:47;2.83;;;1.92;;
10009;SDS011;5044;48.652;9.250;2022-09-16T08:27:16;3.58;;;2.55;;
10009;SDS011;5044;48.652;9.250;2022-09-16T08:29:43;5.05;;;1.77;;
10009;SDS011;5044;48.652;9.250;2022-09-16T08:32:09;3.60;;;2.10;;
10009;SDS011;5044;48.652;9.250;2022-09-16T08:34:37;4.22;;;2.20;;
10009;SDS011;5044;48.652;9.250;2022-09-16T08:37:04;6.82;;;2.88;;
10009;SDS011;5044;48.652;9.250;2022-09-16T08:39:32;3.70;;;1.98;;
10009;SDS011;5044;48.652;9.250;2022-09-16T08:42:01;5.00;;;2.22;;
10009;SDS011;5044;48.652;9.250;2022-09-16T08:44:44;3.78;;;2.30;;
10009;SDS011;5044;48.652;9.250;2022-09-16T08:47:21;2.75;;;2.03;;
10009;SDS011;5044;48.652;9.250;2022-09-16T08:50:02;2.17;;;1.95;;
10009;SDS011;5044;48.652;9.250;2022-09-16T08:52:31;4.60;;;2.20;;
10009;SDS011;5044;48.652;9.250;2022-09-16T08:55:01;3.22;;;2.50;;
10009;SDS011;5044;48.652;9.250;2022-09-16T08:57:32;4.32;;;2.50;;
10009;SDS011;5044;48.652;9.250;2022-09-16T09:00:06;5.30;;;2.78;;
10009;SDS011;5044;48.652;9.250;2022-09-16T09:02:40;2.50;;;2.20;;
10009;SDS011;5044;48.652;9.250;2022-09-16T09:05:16;3.85;;;2.33;;
10009;SDS011;5044;48.652;9.250;2022-09-16T09:07:52;6.85;;;2.50;;
10009;SDS011;5044;48.652;9.250;2022-09-16T09:10:32;4.13;;;2.30;;
10009;SDS011;5044;48.652;9.250;2022-09-16T09:13:07;4.32;;;2.70;;
10009;SDS011;5044;48.652;9.250;2022-09-16T09:15:47;4.72;;;2.50;;
10009;SDS011;5044;48.652;9.250;2022-09-16T09:18:24;2.60;;;2.30;;
10009;SDS011;5044;48.652;9.250;2022-09-16T09:21:07;4.07;;;2.30;;
10009;SDS011;5044;48.652;9.250;2022-09-16T09:23:46;7.10;;;2.72;;
10009;SDS011;5044;48.652;9.250;2022-09-16T09:26:33;5.55;;;2.45;;
10009;SDS011;5044;48.652;9.250;2022-09-16T09:29:16;5.47;;;2.50;;
10009;SDS011;5044;48.652;9.250;2022-09-16T09:31:55;5.45;;;3.00;;
10009;SDS011;5044;48.652;9.250;2022-09-16T09:34:36;9.10;;;2.90;;
10009;SDS011;5044;48.652;9.250;2022-09-16T09:37:28;5.18;;;3.10;;
10009;SDS011;5044;48.652;9.250;2022-09-16T09:40:08;3.87;;;2.80;;
10009;SDS011;5044;48.652;9.250;2022-09-16T09:42:37;2.67;;;2.25;;
10009;SDS011;5044;48.652;9.250;2022-09-16T09:45:13;5.22;;;2.92;;
10009;SDS011;5044;48.652;9.250;2022-09-16T09:47:46;3.20;;;2.05;;
10009;SDS011;5044;48.652;9.250;2022-09-16T09:50:17;3.25;;;2.25;;
10009;SDS011;5044;48.652;9.250;2022-09-16T09:52:49;4.65;;;2.10;;
10009;SDS011;5044;48.652;9.250;2022-09-16T09:55:22;3.15;;;1.52;;
10009;SDS011;5044;48.652;9.250;2022-09-16T10:00:49;2.80;;;2.22;;
10009;SDS011;5044;48.652;9.250;2022-09-16T10:03:18;2.22;;;1.70;;
10009;SDS011;5044;48.652;9.250;2022-09-16T10:05:45;2.53;;;1.92;;
10009;SDS011;5044;48.652;9.250;2022-09-16T10:08:17;3.03;;;2.03;;
10009;SDS011;5044;48.652;9.250;2022-09-16T10:10:52;4.45;;;2.90;;
10009;SDS011;5044;48.652;9.250;2022-09-16T10:13:20;7.18;;;2.72;;
10009;SDS011;5044;48.652;9.250;2022-09-16T10:15:51;3.10;;;2.17;;
10009;SDS011;5044;48.652;9.250;2022-09-16T10:18:22;6.28;;;2.72;;
10009;SDS011;5044;48.652;9.250;2022-09-16T10:20:56;4.65;;;2.67;;
10009;SDS011;5044;48.652;9.250;2022-09-16T10:23:32;4.20;;;2.50;;
10009;SDS011;5044;48.652;9.250;2022-09-16T10:26:03;6.20;;;2.80;;
10009;SDS011;5044;48.652;9.250;2022-09-16T10:28:55;6.05;;;2.97;;
10009;SDS011;5044;48.652;9.250;2022-09-16T10:31:25;4.70;;;2.78;;
10009;SDS011;5044;48.652;9.250;2022-09-16T10:33:56;4.75;;;2.90;;
10009;SDS011;5044;48.652;9.250;2022-09-16T10:36:25;4.50;;;2.78;;
10009;SDS011;5044;48.652;9.250;2022-09-16T10:38:59;4.95;;;2.53;;
10009;SDS011;5044;48.652;9.250;2022-09-16T10:41:28;5.70;;;2.60;;
10009;SDS011;5044;48.652;9.250;2022-09-16T10:43:59;3.80;;;2.60;;
10009;SDS011;5044;48.652;9.250;2022-09-16T10:46:27;5.68;;;2.30;;
10009;SDS011;5044;48.652;9.250;2022-09-16T10:48:58;6.25;;;2.13;;
10009;SDS011;5044;48.652;9.250;2022-09-16T10:51:27;3.55;;;1.92;;
10009;SDS011;5044;48.652;9.250;2022-09-16T10:53:55;3.70;;;2.20;;
10009;SDS011;5044;48.652;9.250;2022-09-16T10:56:24;3.80;;;2.20;;
10009;SDS011;5044;48.652;9.250;2022-09-16T10:59:00;3.72;;;2.40;;
10009;SDS011;5044;48.652;9.250;2022-09-16T11:01:31;4.55;;;2.33;;
10009;SDS011;5044;48.652;9.250;2022-09-16T11:07:12;5.05;;;2.67;;
10009;SDS011;5044;48.652;9.250;2022-09-16T11:09:49;5.43;;;2.10;;
10009;SDS011;5044;48.652;9.250;2022-09-16T11:15:30;3.35;;;2.33;;
10009;SDS011;5044;48.652;9.250;2022-09-16T11:18:07;3.97;;;1.92;;
10009;SDS011;5044;48.652;9.250;2022-09-16T11:20:58;2.58;;;2.08;;
10009;SDS011;5044;48.652;9.250;2022-09-16T11:23:49;3.25;;;2.35;;
10009;SDS011;5044;48.652;9.250;2022-09-16T11:26:30;2.17;;;1.80;;
10009;SDS011;5044;48.652;9.250;2022-09-16T11:29:17;4.82;;;1.63;;
10009;SDS011;5044;48.652;9.250;2022-09-16T11:31:58;1.75;;;1.40;;
10009;SDS011;5044;48.652;9.250;2022-09-16T11:34:39;3.20;;;1.75;;
10009;SDS011;5044;48.652;9.250;2022-09-16T11:37:18;3.75;;;2.00;;
10009;SDS011;5044;48.652;9.250;2022-09-16T11:39:54;4.72;;;1.88;;
10009;SDS011;5044;48.652;9.250;2022-09-16T11:42:29;4.03;;;1.75;;
10009;SDS011;5044;48.652;9.250;2022-09-16T11:47:36;2.88;;;1.80;;
10009;SDS011;5044;48.652;9.250;2022-09-16T11:50:19;4.43;;;1.77;;
10009;SDS011;5044;48.652;9.250;2022-09-16T11:53:00;2.13;;;1.17;;
10009;SDS011;5044;48.652;9.250;2022-09-16T11:55:44;3.60;;;1.40;;
10009;SDS011;5044;48.652;9.250;2022-09-16T11:58:19;3.20;;;1.80;;
10009;SDS011;5044;48.652;9.250;2022-09-16T12:00:52;3.28;;;1.80;;
10009;SDS011;5044;48.652;9.250;2022-09-16T12:03:24;4.28;;;1.38;;
10009;SDS011;5044;48.652;9.250;2022-09-16T12:05:58;8.48;;;1.95;;
10009;SDS011;5044;48.652;9.250;2022-09-16T12:08:37;6.13;;;1.60;;
10009;SDS011;5044;48.652;9.250;2022-09-16T12:11:17;2.25;;;1.35;;
10009;SDS011;5044;48.652;9.250;2022-09-16T12:13:48;5.35;;;1.20;;
10009;SDS011;5044;48.652;9.250;2022-09-16T12:16:19;3.63;;;1.83;;
10009;SDS011;5044;48.652;9.250;2022-09-16T12:18:54;1.58;;;1.00;;
10009;SDS011;5044;48.652;9.250;2022-09-16T12:21:24;2.28;;;1.20;;
10009;SDS011;5044;48.652;9.250;2022-09-16T12:23:58;3.00;;;1.10;;
10009;SDS011;5044;48.652;9.250;2022-09-16T12:26:29;3.38;;;1.17;;
10009;SDS011;5044;48.652;9.250;2022-09-16T12:29:02;3.60;;;1.10;;
10009;SDS011;5044;48.652;9.250;2022-09-16T12:31:33;7.75;;;1.05;;
10009;SDS011;5044;48.652;9.250;2022-09-16T12:34:03;1.60;;;0.85;;
10009;SDS011;5044;48.652;9.250;2022-09-16T12:36:35;6.25;;;1.55;;
10009;SDS011;5044;48.652;9.250;2022-09-16T12:39:07;3.60;;;0.90;;
10009;SDS011;5044;48.652;9.250;2022-09-16T12:47:40;2.88;;;1.20;;
10009;SDS011;5044;48.652;9.250;2022-09-16T12:50:26;4.53;;;2.65;;
10009;SDS011;5044;48.652;9.250;2022-09-16T12:56:16;3.67;;;1.10;;
10009;SDS011;5044;48.652;9.250;2022-09-16T12:59:04;4.47;;;1.00;;
10009;SDS011;5044;48.652;9.250;2022-09-16T13:01:42;3.05;;;1.00;;
10009;SDS011;5044;48.652;9.250;2022-09-16T13:04:13;1.83;;;1.30;;
10009;SDS011;5044;48.652;9.250;2022-09-16T13:06:44;4.10;;;1.02;;
10009;SDS011;5044;48.652;9.250;2022-09-16T13:09:18;1.35;;;1.05;;
10009;SDS011;5044;48.652;9.250;2022-09-16T13:11:56;3.83;;;1.25;;
10009;SDS011;5044;48.652;9.250;2022-09-16T13:14:27;2.10;;;1.25;;
10009;SDS011;5044;48.652;9.250;2022-09-16T13:16:57;4.45;;;1.10;;
10009;SDS011;5044;48.652;9.250;2022-09-16T13:19:29;2.97;;;1.30;;
10009;SDS011;5044;48.652;9.250;2022-09-16T13:22:04;3.22;;;1.00;;
10009;SDS011;5044;48.652;9.250;2022-09-16T13:24:52;3.03;;;0.90;;
10009;SDS011;5044;48.652;9.250;2022-09-16T13:27:25;3.30;;;1.27;;
10009;SDS011;5044;48.652;9.250;2022-09-16T13:30:14;2.63;;;1.35;;
10009;SDS011;5044;48.652;9.250;2022-09-16T13:33:00;3.22;;;1.40;;
10009;SDS011;5044;48.652;9.250;2022-09-16T13:35:45;3.47;;;1.10;;
10009;SDS011;5044;48.652;9.250;2022-09-16T13:38:22;3.65;;;1.38;;
10009;SDS011;5044;48.652;9.250;2022-09-16T13:40:51;4.65;;;1.10;;
10009;SDS011;5044;48.652;9.250;2022-09-16T13:43:29;1.50;;;1.00;;
10009;SDS011;5044;48.652;9.250;2022-09-16T13:46:05;1.48;;;1.10;;
10009;SDS011;5044;48.652;9.250;2022-09-16T13:48:35;2.95;;;1.00;;
10009;SDS011;5044;48.652;9.250;2022-09-16T13:51:12;1.83;;;1.20;;
10009;SDS011;5044;48.652;9.250;2022-09-16T13:53:44;2.03;;;1.15;;
10009;SDS011;5044;48.652;9.250;2022-09-16T13:59:19;2.67;;;0.85;;
10009;SDS011;5044;48.652;9.250;2022-09-16T14:01:59;2.58;;;1.00;;
10009;SDS011;5044;48.652;9.250;2022-09-16T14:04:39;1.77;;;0.90;;
10009;SDS011;5044;48.652;9.250;2022-09-16T14:07:20;3.63;;;1.00;;
10009;SDS011;5044;48.652;9.250;2022-09-16T14:09:58;1.10;;;0.93;;
10009;SDS011;5044;48.652;9.250;2022-09-16T14:12:29;2.78;;;0.75;;
10009;SDS011;5044;48.652;9.250;2022-09-16T14:15:05;4.88;;;1.55;;
10009;SDS011;5044;48.652;9.250;2022-09-16T14:17:36;1.65;;;1.02;;
10009;SDS011;5044;48.652;9.250;2022-09-16T14:20:05;2.42;;;1.55;;
10009;SDS011;5044;48.652;9.250;2022-09-16T14:22:40;5.35;;;1.00;;
10009;SDS011;5044;48.652;9.250;2022-09-16T14:25:24;1.10;;;0.90;;
10009;SDS011;5044;48.652;9.250;2022-09-16T14:30:48;0.90;;;0.80;;
10009;SDS011;5044;48.652;9.250;2022-09-16T14:33:18;3.88;;;1.25;;
10009;SDS011;5044;48.652;9.250;2022-09-16T14:35:48;3.08;;;0.90;;
10009;SDS011;5044;48.652;9.250;2022-09-16T14:38:18;4.20;;;1.33;;
10009;SDS011;5044;48.652;9.250;2022-09-16T14:40:47;1.63;;;0.88;;
10009;SDS011;5044;48.652;9.250;2022-09-16T14:43:15;2.33;;;1.20;;
10009;SDS011;5044;48.652;9.250;2022-09-16T14:45:44;3.58;;;1.02;;
10009;SDS011;5044;48.652;9.250;2022-09-16T14:48:16;4.32;;;1.08;;
10009;SDS011;5044;48.652;9.250;2022-09-16T14:50:46;1.23;;;1.13;;
10009;SDS011;5044;48.652;9.250;2022-09-16T14:53:21;5.07;;;1.23;;
10009;SDS011;5044;48.652;9.250;2022-09-16T14:55:50;3.10;;;1.05;;
10009;SDS011;5044;48.652;9.250;2022-09-16T14:58:18;1.20;;;0.90;;
10009;SDS011;5044;48.652;9.250;2022-09-16T15:00:50;2.47;;;1.20;;
10009;SDS011;5044;48.652;9.250;2022-09-16T15:03:20;3.40;;;0.88;;
10009;SDS011;5044;48.652;9.250;2022-09-16T15:05:50;9.40;;;1.73;;
10009;SDS011;5044;48.652;9.250;2022-09-16T15:08:20;5.15;;;1.05;;
10009;SDS011;5044;48.652;9.250;2022-09-16T15:10:51;3.35;;;0.82;;
10009;SDS011;5044;48.652;9.250;2022-09-16T15:13:22;3.60;;;1.35;;
10009;SDS011;5044;48.652;9.250;2022-09-16T15:15:53;1.17;;;0.95;;
10009;SDS011;5044;48.652;9.250;2022-09-16T15:18:25;1.13;;;0.80;;
10009;SDS011;5044;48.652;9.250;2022-09-16T15:20:57;2.80;;;0.90;;
10009;SDS011;5044;48.652;9.250;2022-09-16T15:23:29;2.60;;;0.95;;
10009;SDS011;5044;48.652;9.250;2022-09-16T15:25:58;3.53;;;0.77;;
10009;SDS011;5044;48.652;9.250;2022-09-16T15:28:47;2.22;;;0.90;;
10009;SDS011;5044;48.652;9.250;2022-09-16T15:31:29;5.05;;;1.08;;
10009;SDS011;5044;48.652;9.250;2022-09-16T15:34:00;2.33;;;0.80;;
10009;SDS011;5044;48.652;9.250;2022-09-16T15:36:36;2.72;;;0.88;;
10009;SDS011;5044;48.652;9.250;2022-09-16T15:39:20;4.18;;;0.70;;
10009;SDS011;5044;48.652;9.250;2022-09-16T15:41:49;3.03;;;0.90;;
10009;SDS011;5044;48.652;9.250;2022-09-16T15:44:30;2.72;;;0.80;;
10009;SDS011;5044;48.652;9.250;2022-09-16T15:46:59;2.25;;;0.77;;
10009;SDS011;5044;48.652;9.250;2022-09-16T15:49:27;3.30;;;0.90;;
10009;SDS011;5044;48.652;9.250;2022-09-16T15:52:09;21.13;;;2.28;;
10009;SDS011;5044;48.652;9.250;2022-09-16T15:54:39;3.22;;;1.02;;
10009;SDS011;5044;48.652;9.250;2022-09-16T16:04:04;2.38;;;0.90;;
10009;SDS011;5044;48.652;9.250;2022-09-16T16:07:38;4.72;;;1.10;;
10009;SDS011;5044;48.652;9.250;2022-09-16T16:13:47;4.25;;;1.38;;
10009;SDS011;5044;48.652;9.250;2022-09-16T16:16:15;4.43;;;0.98;;